sensor_id;sensor_type;location;lat;lon;timestamp;P1;durP1;ratioP1;P2;durP2;ratioP2
68938;SDS011;59064;45.294;11.816;2023-07-13T00:01:47;10.10;;;3.50;;
68938;SDS011;59064;45.294;11.816;2023-07-13T00:04:16;12.50;;;4.20;;
68938;SDS011;59064;45.294;11.816;2023-07-13T00:06:44;7.20;;;3.00;;
68938;SDS011;59064;45.294;11.816;2023-07-13T00:09:15;7.90;;;2.70;;
68938;SDS011;59064;45.294;11.816;2023-07-13T00:11:42;7.70;;;2.30;;
68938;SDS011;59064;45.294;11.816;2023-07-13T00:14:09;6.10;;;2.00;;
68938;SDS011;59064;45.294;11.816;2023-07-13T00:16:37;9.70;;;2.70;;
68938;SDS011;59064;45.294;11.816;2023-07-13T00:19:05;8.10;;;2.70;;
68938;SDS011;59064;45.294;11.816;2023-07-13T00:21:31;6.00;;;2.60;;
68938;SDS011;59064;45.294;11.816;2023-07-13T00:23:57;7.10;;;2.70;;
68938;SDS011;59064;45.294;11.816;2023-07-13T00:26:23;12.00;;;3.00;;
68938;SDS011;59064;45.294;11.816;2023-07-13T00:28:49;6.70;;;3.10;;
68938;SDS011;59064;45.294;11.816;2023-07-13T00:31:15;11.30;;;3.50;;
68938;SDS011;59064;45.294;11.816;2023-07-13T00:33:41;6.80;;;3.00;;
68938;SDS011;59064;45.294;11.816;2023-07-13T00:36:07;5.70;;;2.80;;
68938;SDS011;59064;45.294;11.816;2023-07-13T00:38:34;9.00;;;2.90;;
68938;SDS011;59064;45.294;11.816;2023-07-13T00:41:00;6.70;;;3.00;;
68938;SDS011;59064;45.294;11.816;2023-07-13T00:43:27;7.30;;;3.30;;
68938;SDS011;59064;45.294;11.816;2023-07-13T00:48:22;8.70;;;3.30;;
68938;SDS011;59064;45.294;11.816;2023-07-13T00:50:52;11.10;;;3.00;;
68938;SDS011;59064;45.294;11.816;2023-07-13T00:53:20;6.70;;;2.80;;
68938;SDS011;59064;45.294;11.816;2023-07-13T00:55:47;9.20;;;3.20;;
68938;SDS011;59064;45.294;11.816;2023-07-13T00:58:15;7.90;;;3.20;;
68938;SDS011;59064;45.294;11.816;2023-07-13T01:00:41;9.40;;;3.30;;
68938;SDS011;59064;45.294;11.816;2023-07-13T01:03:07;6.70;;;3.40;;
68938;SDS011;59064;45.294;11.816;2023-07-13T01:05:34;7.40;;;3.00;;
68938;SDS011;59064;45.294;11.816;2023-07-13T01:08:01;6.30;;;2.60;;
68938;SDS011;59064;45.294;11.816;2023-07-13T01:10:29;7.40;;;2.90;;
68938;SDS011;59064;45.294;11.816;2023-07-13T01:13:04;6.00;;;2.10;;
68938;SDS011;59064;45.294;11.816;2023-07-13T01:15:39;5.10;;;2.40;;
68938;SDS011;59064;45.294;11.816;2023-07-13T01:18:24;6.20;;;2.40;;
68938;SDS011;59064;45.294;11.816;2023-07-13T01:20:55;6.10;;;1.80;;
68938;SDS011;59064;45.294;11.816;2023-07-13T01:23:22;8.40;;;2.10;;
68938;SDS011;59064;45.294;11.816;2023-07-13T01:25:50;4.20;;;2.10;;
68938;SDS011;59064;45.294;11.816;2023-07-13T01:28:17;5.00;;;1.80;;
68938;SDS011;59064;45.294;11.816;2023-07-13T01:30:45;5.10;;;1.80;;
68938;SDS011;59064;45.294;11.816;2023-07-13T01:33:16;3.70;;;1.90;;
68938;SDS011;59064;45.294;11.816;2023-07-13T01:35:44;3.50;;;1.70;;
68938;SDS011;59064;45.294;11.816;2023-07-13T01:38:12;4.80;;;1.90;;
68938;SDS011;59064;45.294;11.816;2023-07-13T01:40:39;4.10;;;1.90;;
68938;SDS011;59064;45.294;11.816;2023-07-13T01:43:05;4.50;;;1.70;;
68938;SDS011;59064;45.294;11.816;2023-07-13T01:45:31;6.60;;;2.20;;
68938;SDS011;59064;45.294;11.816;2023-07-13T01:47:57;4.10;;;1.70;;
68938;SDS011;59064;45.294;11.816;2023-07-13T01:50:23;6.40;;;2.10;;
68938;SDS011;59064;45.294;11.816;2023-07-13T01:52:50;4.00;;;1.80;;
68938;SDS011;59064;45.294;11.816;2023-07-13T01:55:16;6.10;;;1.80;;
68938;SDS011;59064;45.294;11.816;2023-07-13T01:57:41;5.70;;;2.10;;
68938;SDS011;59064;45.294;11.816;2023-07-13T02:00:09;5.70;;;2.00;;
68938;SDS011;59064;45.294;11.816;2023-07-13T02:02:35;6.60;;;2.30;;
68938;SDS011;59064;45.294;11.816;2023-07-13T02:05:01;4.30;;;2.00;;
68938;SDS011;59064;45.294;11.816;2023-07-13T02:07:26;5.80;;;1.60;;
68938;SDS011;59064;45.294;11.816;2023-07-13T02:09:52;5.10;;;2.20;;
68938;SDS011;59064;45.294;11.816;2023-07-13T02:12:19;4.60;;;1.70;;
68938;SDS011;59064;45.294;11.816;2023-07-13T02:14:44;4.10;;;1.90;;
68938;SDS011;59064;45.294;11.816;2023-07-13T02:17:10;4.80;;;1.80;;
68938;SDS011;59064;45.294;11.816;2023-07-13T02:19:36;5.20;;;1.90;;
68938;SDS011;59064;45.294;11.816;2023-07-13T02:22:02;5.40;;;2.10;;
68938;SDS011;59064;45.294;11.816;2023-07-13T02:24:28;7.40;;;2.40;;
68938;SDS011;59064;45.294;11.816;2023-07-13T02:26:54;4.90;;;2.20;;
68938;SDS011;59064;45.294;11.816;2023-07-13T02:29:19;5.60;;;1.90;;
68938;SDS011;59064;45.294;11.816;2023-07-13T02:31:45;4.70;;;1.90;;
68938;SDS011;59064;45.294;11.816;2023-07-13T02:34:11;5.50;;;2.20;;
68938;SDS011;59064;45.294;11.816;2023-07-13T02:36:36;7.10;;;2.20;;
68938;SDS011;59064;45.294;11.816;2023-07-13T02:39:03;5.40;;;2.40;;
68938;SDS011;59064;45.294;11.816;2023-07-13T02:41:30;6.20;;;1.90;;
68938;SDS011;59064;45.294;11.816;2023-07-13T02:43:58;5.50;;;2.20;;
68938;SDS011;59064;45.294;11.816;2023-07-13T02:46:32;4.40;;;1.90;;
68938;SDS011;59064;45.294;11.816;2023-07-13T02:48:59;5.60;;;2.10;;
68938;SDS011;59064;45.294;11.816;2023-07-13T02:51:25;5.20;;;2.10;;
68938;SDS011;59064;45.294;11.816;2023-07-13T02:53:51;4.20;;;1.60;;
68938;SDS011;59064;45.294;11.816;2023-07-13T02:56:23;4.30;;;1.80;;
68938;SDS011;59064;45.294;11.816;2023-07-13T02:58:50;5.10;;;1.90;;
68938;SDS011;59064;45.294;11.816;2023-07-13T03:01:16;5.80;;;1.90;;
68938;SDS011;59064;45.294;11.816;2023-07-13T03:03:46;5.60;;;1.90;;
68938;SDS011;59064;45.294;11.816;2023-07-13T03:06:12;5.40;;;2.20;;
68938;SDS011;59064;45.294;11.816;2023-07-13T03:08:39;5.90;;;2.10;;
68938;SDS011;59064;45.294;11.816;2023-07-13T03:11:07;4.50;;;1.90;;
68938;SDS011;59064;45.294;11.816;2023-07-13T03:13:36;4.50;;;1.80;;
68938;SDS011;59064;45.294;11.816;2023-07-13T03:16:03;7.00;;;2.70;;
68938;SDS011;59064;45.294;11.816;2023-07-13T03:18:30;5.30;;;2.50;;
68938;SDS011;59064;45.294;11.816;2023-07-13T03:20:55;5.00;;;2.10;;
68938;SDS011;59064;45.294;11.816;2023-07-13T03:23:21;5.40;;;2.00;;
68938;SDS011;59064;45.294;11.816;2023-07-13T03:25:47;5.20;;;2.20;;
68938;SDS011;59064;45.294;11.816;2023-07-13T03:28:14;5.30;;;2.40;;
68938;SDS011;59064;45.294;11.816;2023-07-13T03:30:40;6.20;;;2.10;;
68938;SDS011;59064;45.294;11.816;2023-07-13T03:33:07;5.60;;;2.10;;
68938;SDS011;59064;45.294;11.816;2023-07-13T03:35:34;5.80;;;2.40;;
68938;SDS011;59064;45.294;11.816;2023-07-13T03:38:00;7.00;;;2.20;;
68938;SDS011;59064;45.294;11.816;2023-07-13T03:40:26;7.30;;;2.50;;
68938;SDS011;59064;45.294;11.816;2023-07-13T03:42:53;3.80;;;2.00;;
68938;SDS011;59064;45.294;11.816;2023-07-13T03:45:19;4.20;;;2.00;;
68938;SDS011;59064;45.294;11.816;2023-07-13T03:47:44;6.20;;;2.60;;
68938;SDS011;59064;45.294;11.816;2023-07-13T03:50:10;5.20;;;2.40;;
68938;SDS011;59064;45.294;11.816;2023-07-13T03:52:37;9.90;;;2.90;;
68938;SDS011;59064;45.294;11.816;2023-07-13T03:55:02;4.80;;;2.20;;
68938;SDS011;59064;45.294;11.816;2023-07-13T03:57:28;6.10;;;2.90;;
68938;SDS011;59064;45.294;11.816;2023-07-13T03:59:53;5.70;;;2.90;;
68938;SDS011;59064;45.294;11.816;2023-07-13T04:02:19;7.90;;;3.10;;
68938;SDS011;59064;45.294;11.816;2023-07-13T04:04:45;6.60;;;3.00;;
68938;SDS011;59064;45.294;11.816;2023-07-13T04:07:11;5.20;;;3.10;;
68938;SDS011;59064;45.294;11.816;2023-07-13T04:09:37;9.60;;;3.40;;
68938;SDS011;59064;45.294;11.816;2023-07-13T04:12:03;5.90;;;2.30;;
68938;SDS011;59064;45.294;11.816;2023-07-13T04:14:29;5.90;;;2.80;;
68938;SDS011;59064;45.294;11.816;2023-07-13T04:16:54;5.60;;;2.30;;
68938;SDS011;59064;45.294;11.816;2023-07-13T04:19:20;8.20;;;3.40;;
68938;SDS011;59064;45.294;11.816;2023-07-13T04:21:46;6.60;;;2.80;;
68938;SDS011;59064;45.294;11.816;2023-07-13T04:24:12;8.90;;;3.10;;
68938;SDS011;59064;45.294;11.816;2023-07-13T04:26:38;7.90;;;3.10;;
68938;SDS011;59064;45.294;11.816;2023-07-13T04:29:05;6.60;;;2.60;;
68938;SDS011;59064;45.294;11.816;2023-07-13T04:31:31;6.00;;;2.60;;
68938;SDS011;59064;45.294;11.816;2023-07-13T04:33:58;7.70;;;3.10;;
68938;SDS011;59064;45.294;11.816;2023-07-13T04:36:24;5.30;;;2.50;;
68938;SDS011;59064;45.294;11.816;2023-07-13T04:38:53;7.00;;;2.80;;
68938;SDS011;59064;45.294;11.816;2023-07-13T04:41:20;8.00;;;3.00;;
68938;SDS011;59064;45.294;11.816;2023-07-13T04:43:46;6.10;;;2.80;;
68938;SDS011;59064;45.294;11.816;2023-07-13T04:46:14;5.90;;;2.90;;
68938;SDS011;59064;45.294;11.816;2023-07-13T04:48:45;5.60;;;2.60;;
68938;SDS011;59064;45.294;11.816;2023-07-13T04:51:11;5.40;;;2.20;;
68938;SDS011;59064;45.294;11.816;2023-07-13T04:53:37;8.20;;;2.80;;
68938;SDS011;59064;45.294;11.816;2023-07-13T04:56:03;6.70;;;2.60;;
68938;SDS011;59064;45.294;11.816;2023-07-13T04:58:29;6.50;;;2.40;;
68938;SDS011;59064;45.294;11.816;2023-07-13T05:01:02;6.10;;;2.60;;
68938;SDS011;59064;45.294;11.816;2023-07-13T05:03:29;6.20;;;2.70;;
68938;SDS011;59064;45.294;11.816;2023-07-13T05:06:05;6.60;;;2.70;;
68938;SDS011;59064;45.294;11.816;2023-07-13T05:08:35;4.60;;;2.40;;
68938;SDS011;59064;45.294;11.816;2023-07-13T05:11:04;6.60;;;2.90;;
68938;SDS011;59064;45.294;11.816;2023-07-13T05:13:30;5.60;;;2.40;;
68938;SDS011;59064;45.294;11.816;2023-07-13T05:15:58;7.40;;;2.50;;
68938;SDS011;59064;45.294;11.816;2023-07-13T05:18:26;5.10;;;2.20;;
68938;SDS011;59064;45.294;11.816;2023-07-13T05:21:01;5.10;;;2.50;;
68938;SDS011;59064;45.294;11.816;2023-07-13T05:23:29;6.20;;;2.10;;
68938;SDS011;59064;45.294;11.816;2023-07-13T05:25:55;9.70;;;2.20;;
68938;SDS011;59064;45.294;11.816;2023-07-13T05:28:21;3.90;;;2.00;;
68938;SDS011;59064;45.294;11.816;2023-07-13T05:30:48;6.40;;;2.10;;
68938;SDS011;59064;45.294;11.816;2023-07-13T05:33:14;6.90;;;2.40;;
68938;SDS011;59064;45.294;11.816;2023-07-13T05:35:40;6.50;;;2.50;;
68938;SDS011;59064;45.294;11.816;2023-07-13T05:38:06;4.20;;;1.70;;
68938;SDS011;59064;45.294;11.816;2023-07-13T05:40:32;4.60;;;1.90;;
68938;SDS011;59064;45.294;11.816;2023-07-13T05:42:57;4.90;;;2.10;;
68938;SDS011;59064;45.294;11.816;2023-07-13T05:45:23;6.60;;;2.20;;
68938;SDS011;59064;45.294;11.816;2023-07-13T05:47:49;7.00;;;2.90;;
68938;SDS011;59064;45.294;11.816;2023-07-13T05:50:14;5.30;;;2.50;;
68938;SDS011;59064;45.294;11.816;2023-07-13T05:52:40;6.60;;;2.40;;
68938;SDS011;59064;45.294;11.816;2023-07-13T05:55:05;8.60;;;2.70;;
68938;SDS011;59064;45.294;11.816;2023-07-13T05:57:31;6.30;;;2.80;;
68938;SDS011;59064;45.294;11.816;2023-07-13T05:59:57;7.30;;;2.90;;
68938;SDS011;59064;45.294;11.816;2023-07-13T06:02:23;7.10;;;2.80;;
68938;SDS011;59064;45.294;11.816;2023-07-13T06:04:48;8.40;;;3.00;;
68938;SDS011;59064;45.294;11.816;2023-07-13T06:07:14;6.50;;;3.30;;
68938;SDS011;59064;45.294;11.816;2023-07-13T06:09:40;7.70;;;3.50;;
68938;SDS011;59064;45.294;11.816;2023-07-13T06:12:06;7.00;;;3.10;;
68938;SDS011;59064;45.294;11.816;2023-07-13T06:14:32;7.90;;;3.00;;
68938;SDS011;59064;45.294;11.816;2023-07-13T06:16:57;6.30;;;3.50;;
68938;SDS011;59064;45.294;11.816;2023-07-13T06:19:23;6.80;;;3.00;;
68938;SDS011;59064;45.294;11.816;2023-07-13T06:21:48;8.10;;;3.30;;
68938;SDS011;59064;45.294;11.816;2023-07-13T06:24:14;5.50;;;2.70;;
68938;SDS011;59064;45.294;11.816;2023-07-13T06:26:39;6.40;;;2.60;;
68938;SDS011;59064;45.294;11.816;2023-07-13T06:29:05;7.00;;;2.80;;
68938;SDS011;59064;45.294;11.816;2023-07-13T06:31:31;6.00;;;2.50;;
68938;SDS011;59064;45.294;11.816;2023-07-13T06:33:56;6.60;;;2.60;;
68938;SDS011;59064;45.294;11.816;2023-07-13T06:36:22;6.00;;;2.40;;
68938;SDS011;59064;45.294;11.816;2023-07-13T06:38:48;6.20;;;2.60;;
68938;SDS011;59064;45.294;11.816;2023-07-13T06:41:13;6.00;;;2.40;;
68938;SDS011;59064;45.294;11.816;2023-07-13T06:43:39;5.80;;;2.30;;
68938;SDS011;59064;45.294;11.816;2023-07-13T06:46:05;8.90;;;2.40;;
68938;SDS011;59064;45.294;11.816;2023-07-13T06:48:30;5.50;;;2.30;;
68938;SDS011;59064;45.294;11.816;2023-07-13T06:50:56;5.10;;;1.90;;
68938;SDS011;59064;45.294;11.816;2023-07-13T06:53:22;5.30;;;2.10;;
68938;SDS011;59064;45.294;11.816;2023-07-13T06:55:48;5.10;;;2.10;;
68938;SDS011;59064;45.294;11.816;2023-07-13T06:58:15;7.70;;;2.60;;
68938;SDS011;59064;45.294;11.816;2023-07-13T07:00:42;6.40;;;2.20;;
68938;SDS011;59064;45.294;11.816;2023-07-13T07:03:08;5.80;;;2.00;;
68938;SDS011;59064;45.294;11.816;2023-07-13T07:05:34;6.60;;;2.10;;
68938;SDS011;59064;45.294;11.816;2023-07-13T07:08:00;4.70;;;2.10;;
68938;SDS011;59064;45.294;11.816;2023-07-13T07:10:25;7.10;;;2.40;;
68938;SDS011;59064;45.294;11.816;2023-07-13T07:12:51;6.90;;;2.10;;
68938;SDS011;59064;45.294;11.816;2023-07-13T07:15:17;5.70;;;2.20;;
68938;SDS011;59064;45.294;11.816;2023-07-13T07:17:44;5.40;;;2.10;;
68938;SDS011;59064;45.294;11.816;2023-07-13T07:20:10;8.30;;;2.50;;
68938;SDS011;59064;45.294;11.816;2023-07-13T07:22:36;7.10;;;2.20;;
68938;SDS011;59064;45.294;11.816;2023-07-13T07:25:01;7.00;;;2.70;;
68938;SDS011;59064;45.294;11.816;2023-07-13T07:27:27;5.70;;;2.10;;
68938;SDS011;59064;45.294;11.816;2023-07-13T07:29:53;6.20;;;2.40;;
68938;SDS011;59064;45.294;11.816;2023-07-13T07:32:19;8.30;;;2.40;;
68938;SDS011;59064;45.294;11.816;2023-07-13T07:34:45;5.60;;;2.30;;
68938;SDS011;59064;45.294;11.816;2023-07-13T07:37:12;7.30;;;2.30;;
68938;SDS011;59064;45.294;11.816;2023-07-13T07:39:39;10.10;;;2.70;;
68938;SDS011;59064;45.294;11.816;2023-07-13T07:42:05;6.60;;;2.50;;
68938;SDS011;59064;45.294;11.816;2023-07-13T07:44:31;5.70;;;1.90;;
68938;SDS011;59064;45.294;11.816;2023-07-13T07:46:58;6.50;;;2.40;;
68938;SDS011;59064;45.294;11.816;2023-07-13T07:49:24;6.90;;;2.30;;
68938;SDS011;59064;45.294;11.816;2023-07-13T07:51:50;7.20;;;2.30;;
68938;SDS011;59064;45.294;11.816;2023-07-13T07:54:16;4.40;;;2.10;;
68938;SDS011;59064;45.294;11.816;2023-07-13T07:56:42;5.30;;;2.20;;
68938;SDS011;59064;45.294;11.816;2023-07-13T07:59:07;5.90;;;2.40;;
68938;SDS011;59064;45.294;11.816;2023-07-13T08:01:33;6.60;;;1.90;;
68938;SDS011;59064;45.294;11.816;2023-07-13T08:03:58;6.90;;;2.10;;
68938;SDS011;59064;45.294;11.816;2023-07-13T08:06:24;8.80;;;2.40;;
68938;SDS011;59064;45.294;11.816;2023-07-13T08:08:50;7.70;;;2.20;;
68938;SDS011;59064;45.294;11.816;2023-07-13T08:11:16;6.60;;;2.60;;
68938;SDS011;59064;45.294;11.816;2023-07-13T08:13:43;8.70;;;2.90;;
68938;SDS011;59064;45.294;11.816;2023-07-13T08:16:08;8.00;;;2.30;;
68938;SDS011;59064;45.294;11.816;2023-07-13T08:18:34;7.10;;;2.70;;
68938;SDS011;59064;45.294;11.816;2023-07-13T08:21:04;7.10;;;2.60;;
68938;SDS011;59064;45.294;11.816;2023-07-13T08:23:31;8.30;;;3.30;;
68938;SDS011;59064;45.294;11.816;2023-07-13T08:25:57;7.30;;;3.40;;
68938;SDS011;59064;45.294;11.816;2023-07-13T08:28:23;9.00;;;3.90;;
68938;SDS011;59064;45.294;11.816;2023-07-13T08:30:49;6.90;;;3.20;;
68938;SDS011;59064;45.294;11.816;2023-07-13T08:33:16;10.40;;;3.10;;
68938;SDS011;59064;45.294;11.816;2023-07-13T08:35:42;8.30;;;3.00;;
68938;SDS011;59064;45.294;11.816;2023-07-13T08:38:10;8.70;;;2.50;;
68938;SDS011;59064;45.294;11.816;2023-07-13T08:40:35;8.10;;;2.60;;
68938;SDS011;59064;45.294;11.816;2023-07-13T08:43:01;9.10;;;2.60;;
68938;SDS011;59064;45.294;11.816;2023-07-13T08:45:44;8.30;;;3.10;;
68938;SDS011;59064;45.294;11.816;2023-07-13T08:48:32;4.70;;;2.20;;
68938;SDS011;59064;45.294;11.816;2023-07-13T08:51:16;5.60;;;2.60;;
68938;SDS011;59064;45.294;11.816;2023-07-13T08:54:34;5.10;;;2.40;;
68938;SDS011;59064;45.294;11.816;2023-07-13T08:57:15;6.30;;;2.50;;
68938;SDS011;59064;45.294;11.816;2023-07-13T08:59:44;7.90;;;2.70;;
68938;SDS011;59064;45.294;11.816;2023-07-13T09:02:56;8.30;;;2.70;;
68938;SDS011;59064;45.294;11.816;2023-07-13T09:05:35;9.70;;;2.50;;
68938;SDS011;59064;45.294;11.816;2023-07-13T09:16:19;7.90;;;2.50;;
68938;SDS011;59064;45.294;11.816;2023-07-13T09:18:48;6.60;;;2.50;;
68938;SDS011;59064;45.294;11.816;2023-07-13T09:21:26;8.40;;;2.60;;
68938;SDS011;59064;45.294;11.816;2023-07-13T09:24:01;6.70;;;2.10;;
68938;SDS011;59064;45.294;11.816;2023-07-13T09:26:48;6.10;;;2.20;;
68938;SDS011;59064;45.294;11.816;2023-07-13T09:29:21;6.30;;;2.00;;
68938;SDS011;59064;45.294;11.816;2023-07-13T09:31:55;5.10;;;2.20;;
68938;SDS011;59064;45.294;11.816;2023-07-13T09:34:24;5.20;;;1.90;;
68938;SDS011;59064;45.294;11.816;2023-07-13T09:36:51;7.20;;;2.30;;
68938;SDS011;59064;45.294;11.816;2023-07-13T09:39:41;6.70;;;2.20;;
68938;SDS011;59064;45.294;11.816;2023-07-13T09:47:19;6.60;;;2.50;;
68938;SDS011;59064;45.294;11.816;2023-07-13T09:49:56;7.10;;;2.10;;
68938;SDS011;59064;45.294;11.816;2023-07-13T09:52:27;6.70;;;2.70;;
68938;SDS011;59064;45.294;11.816;2023-07-13T09:55:04;8.40;;;2.60;;
68938;SDS011;59064;45.294;11.816;2023-07-13T09:57:47;6.40;;;2.80;;
68938;SDS011;59064;45.294;11.816;2023-07-13T10:00:24;5.60;;;2.50;;
68938;SDS011;59064;45.294;11.816;2023-07-13T10:03:04;6.30;;;2.80;;
68938;SDS011;59064;45.294;11.816;2023-07-13T10:05:43;11.70;;;2.90;;
68938;SDS011;59064;45.294;11.816;2023-07-13T10:08:29;9.50;;;2.70;;
68938;SDS011;59064;45.294;11.816;2023-07-13T10:11:00;5.10;;;2.10;;
68938;SDS011;59064;45.294;11.816;2023-07-13T10:13:35;6.90;;;2.50;;
68938;SDS011;59064;45.294;11.816;2023-07-13T10:16:03;7.20;;;2.40;;
68938;SDS011;59064;45.294;11.816;2023-07-13T10:18:39;7.00;;;2.20;;
68938;SDS011;59064;45.294;11.816;2023-07-13T10:21:22;7.30;;;2.20;;
68938;SDS011;59064;45.294;11.816;2023-07-13T10:24:04;9.40;;;2.50;;
68938;SDS011;59064;45.294;11.816;2023-07-13T10:26:52;7.10;;;2.10;;
68938;SDS011;59064;45.294;11.816;2023-07-13T10:29:23;3.70;;;1.70;;
68938;SDS011;59064;45.294;11.816;2023-07-13T10:31:51;5.90;;;1.70;;
68938;SDS011;59064;45.294;11.816;2023-07-13T10:34:16;6.40;;;1.80;;
68938;SDS011;59064;45.294;11.816;2023-07-13T10:36:44;6.90;;;1.80;;
68938;SDS011;59064;45.294;11.816;2023-07-13T10:39:23;4.90;;;1.60;;
68938;SDS011;59064;45.294;11.816;2023-07-13T10:42:04;5.40;;;1.70;;
68938;SDS011;59064;45.294;11.816;2023-07-13T10:44:34;4.90;;;1.80;;
68938;SDS011;59064;45.294;11.816;2023-07-13T10:47:18;5.20;;;1.50;;
68938;SDS011;59064;45.294;11.816;2023-07-13T10:49:44;4.80;;;1.60;;
68938;SDS011;59064;45.294;11.816;2023-07-13T10:52:42;4.70;;;1.80;;
68938;SDS011;59064;45.294;11.816;2023-07-13T11:03:53;4.50;;;1.70;;
68938;SDS011;59064;45.294;11.816;2023-07-13T11:08:54;4.60;;;1.60;;
68938;SDS011;59064;45.294;11.816;2023-07-13T11:22:02;4.70;;;1.70;;
68938;SDS011;59064;45.294;11.816;2023-07-13T11:25:01;4.80;;;1.70;;
68938;SDS011;59064;45.294;11.816;2023-07-13T11:27:50;5.50;;;1.90;;
68938;SDS011;59064;45.294;11.816;2023-07-13T11:38:42;3.80;;;2.10;;
68938;SDS011;59064;45.294;11.816;2023-07-13T11:41:22;6.60;;;2.60;;
68938;SDS011;59064;45.294;11.816;2023-07-13T11:44:01;6.50;;;2.20;;
68938;SDS011;59064;45.294;11.816;2023-07-13T11:46:31;6.30;;;2.50;;
68938;SDS011;59064;45.294;11.816;2023-07-13T11:48:57;9.90;;;2.80;;
68938;SDS011;59064;45.294;11.816;2023-07-13T11:51:28;6.70;;;3.00;;
68938;SDS011;59064;45.294;11.816;2023-07-13T11:54:15;6.60;;;2.80;;
68938;SDS011;59064;45.294;11.816;2023-07-13T11:56:55;5.90;;;3.00;;
68938;SDS011;59064;45.294;11.816;2023-07-13T11:59:23;9.50;;;3.00;;
68938;SDS011;59064;45.294;11.816;2023-07-13T12:01:52;10.00;;;3.50;;
68938;SDS011;59064;45.294;11.816;2023-07-13T12:04:25;9.10;;;3.60;;
68938;SDS011;59064;45.294;11.816;2023-07-13T12:07:14;7.70;;;2.90;;
68938;SDS011;59064;45.294;11.816;2023-07-13T12:09:42;7.70;;;3.00;;
68938;SDS011;59064;45.294;11.816;2023-07-13T12:12:16;6.30;;;3.00;;
68938;SDS011;59064;45.294;11.816;2023-07-13T12:14:43;6.90;;;3.20;;
68938;SDS011;59064;45.294;11.816;2023-07-13T12:17:20;6.40;;;2.80;;
68938;SDS011;59064;45.294;11.816;2023-07-13T12:19:50;7.80;;;3.30;;
68938;SDS011;59064;45.294;11.816;2023-07-13T12:22:18;10.90;;;3.30;;
68938;SDS011;59064;45.294;11.816;2023-07-13T12:24:45;8.20;;;3.20;;
68938;SDS011;59064;45.294;11.816;2023-07-13T12:27:20;5.20;;;2.60;;
68938;SDS011;59064;45.294;11.816;2023-07-13T12:35:28;6.20;;;2.20;;
68938;SDS011;59064;45.294;11.816;2023-07-13T12:37:57;6.10;;;2.30;;
68938;SDS011;59064;45.294;11.816;2023-07-13T12:40:30;6.70;;;2.40;;
68938;SDS011;59064;45.294;11.816;2023-07-13T12:42:58;6.20;;;2.70;;
68938;SDS011;59064;45.294;11.816;2023-07-13T12:45:26;9.00;;;2.90;;
68938;SDS011;59064;45.294;11.816;2023-07-13T12:47:57;6.90;;;2.80;;
68938;SDS011;59064;45.294;11.816;2023-07-13T12:50:41;8.60;;;3.50;;
68938;SDS011;59064;45.294;11.816;2023-07-13T12:53:19;6.70;;;3.50;;
68938;SDS011;59064;45.294;11.816;2023-07-13T12:55:49;8.40;;;3.10;;
68938;SDS011;59064;45.294;11.816;2023-07-13T12:58:27;6.70;;;3.00;;
68938;SDS011;59064;45.294;11.816;2023-07-13T13:01:01;5.60;;;2.90;;
68938;SDS011;59064;45.294;11.816;2023-07-13T13:03:33;10.10;;;3.40;;
68938;SDS011;59064;45.294;11.816;2023-07-13T13:08:48;8.30;;;3.10;;
68938;SDS011;59064;45.294;11.816;2023-07-13T13:11:16;7.40;;;2.90;;
68938;SDS011;59064;45.294;11.816;2023-07-13T13:13:43;9.80;;;3.40;;
68938;SDS011;59064;45.294;11.816;2023-07-13T13:18:49;7.00;;;3.10;;
68938;SDS011;59064;45.294;11.816;2023-07-13T13:21:17;8.60;;;3.40;;
68938;SDS011;59064;45.294;11.816;2023-07-13T13:23:44;7.40;;;2.80;;
68938;SDS011;59064;45.294;11.816;2023-07-13T13:26:13;7.30;;;2.70;;
68938;SDS011;59064;45.294;11.816;2023-07-13T13:28:44;6.70;;;2.90;;
68938;SDS011;59064;45.294;11.816;2023-07-13T13:31:11;7.20;;;3.30;;
68938;SDS011;59064;45.294;11.816;2023-07-13T13:33:44;7.80;;;3.30;;
68938;SDS011;59064;45.294;11.816;2023-07-13T13:36:22;7.80;;;2.90;;
68938;SDS011;59064;45.294;11.816;2023-07-13T13:38:49;8.80;;;2.90;;
68938;SDS011;59064;45.294;11.816;2023-07-13T13:41:15;8.40;;;3.20;;
68938;SDS011;59064;45.294;11.816;2023-07-13T13:43:42;9.80;;;3.40;;
68938;SDS011;59064;45.294;11.816;2023-07-13T13:46:23;8.60;;;3.10;;
68938;SDS011;59064;45.294;11.816;2023-07-13T13:48:55;10.10;;;3.40;;
68938;SDS011;59064;45.294;11.816;2023-07-13T13:51:23;6.30;;;2.70;;
68938;SDS011;59064;45.294;11.816;2023-07-13T13:53:49;5.90;;;3.10;;
68938;SDS011;59064;45.294;11.816;2023-07-13T13:56:16;8.30;;;3.60;;
68938;SDS011;59064;45.294;11.816;2023-07-13T13:58:43;7.80;;;3.30;;
68938;SDS011;59064;45.294;11.816;2023-07-13T14:01:20;8.00;;;3.00;;
68938;SDS011;59064;45.294;11.816;2023-07-13T14:03:49;8.90;;;3.40;;
68938;SDS011;59064;45.294;11.816;2023-07-13T14:06:16;10.50;;;3.20;;
68938;SDS011;59064;45.294;11.816;2023-07-13T14:08:42;8.00;;;3.20;;
68938;SDS011;59064;45.294;11.816;2023-07-13T14:11:13;8.80;;;3.50;;
68938;SDS011;59064;45.294;11.816;2023-07-13T14:13:42;11.00;;;3.20;;
68938;SDS011;59064;45.294;11.816;2023-07-13T14:16:14;10.20;;;3.40;;
68938;SDS011;59064;45.294;11.816;2023-07-13T14:18:43;7.60;;;3.10;;
68938;SDS011;59064;45.294;11.816;2023-07-13T14:21:18;5.60;;;3.20;;
68938;SDS011;59064;45.294;11.816;2023-07-13T14:23:47;6.30;;;3.00;;
68938;SDS011;59064;45.294;11.816;2023-07-13T14:26:22;8.90;;;3.70;;
68938;SDS011;59064;45.294;11.816;2023-07-13T14:28:55;6.80;;;3.00;;
68938;SDS011;59064;45.294;11.816;2023-07-13T14:31:24;7.80;;;3.60;;
68938;SDS011;59064;45.294;11.816;2023-07-13T14:33:51;9.40;;;3.50;;
68938;SDS011;59064;45.294;11.816;2023-07-13T14:38:42;8.30;;;3.20;;
68938;SDS011;59064;45.294;11.816;2023-07-13T14:41:08;9.10;;;3.90;;
68938;SDS011;59064;45.294;11.816;2023-07-13T14:43:33;10.10;;;3.20;;
68938;SDS011;59064;45.294;11.816;2023-07-13T14:45:59;12.40;;;3.90;;
68938;SDS011;59064;45.294;11.816;2023-07-13T14:48:25;10.30;;;3.70;;
68938;SDS011;59064;45.294;11.816;2023-07-13T14:50:54;12.10;;;3.80;;
68938;SDS011;59064;45.294;11.816;2023-07-13T14:53:22;12.30;;;3.40;;
68938;SDS011;59064;45.294;11.816;2023-07-13T14:55:50;11.00;;;3.30;;
68938;SDS011;59064;45.294;11.816;2023-07-13T14:58:16;9.50;;;3.30;;
68938;SDS011;59064;45.294;11.816;2023-07-13T15:00:42;8.00;;;3.60;;
68938;SDS011;59064;45.294;11.816;2023-07-13T15:03:18;9.10;;;3.50;;
68938;SDS011;59064;45.294;11.816;2023-07-13T15:05:46;13.40;;;4.30;;
68938;SDS011;59064;45.294;11.816;2023-07-13T15:08:13;9.50;;;3.90;;
68938;SDS011;59064;45.294;11.816;2023-07-13T15:10:38;7.20;;;3.40;;
68938;SDS011;59064;45.294;11.816;2023-07-13T15:13:18;8.70;;;3.50;;
68938;SDS011;59064;45.294;11.816;2023-07-13T15:15:50;7.60;;;3.40;;
68938;SDS011;59064;45.294;11.816;2023-07-13T15:18:20;13.40;;;3.70;;
68938;SDS011;59064;45.294;11.816;2023-07-13T15:20:48;10.70;;;3.80;;
68938;SDS011;59064;45.294;11.816;2023-07-13T15:23:16;10.40;;;3.50;;
68938;SDS011;59064;45.294;11.816;2023-07-13T15:25:43;12.40;;;3.70;;
68938;SDS011;59064;45.294;11.816;2023-07-13T15:28:10;11.80;;;3.80;;
68938;SDS011;59064;45.294;11.816;2023-07-13T15:30:47;9.50;;;3.40;;
68938;SDS011;59064;45.294;11.816;2023-07-13T15:33:26;8.20;;;3.70;;
68938;SDS011;59064;45.294;11.816;2023-07-13T15:35:54;8.40;;;3.20;;
68938;SDS011;59064;45.294;11.816;2023-07-13T15:38:22;7.50;;;3.40;;
68938;SDS011;59064;45.294;11.816;2023-07-13T15:40:53;10.20;;;3.40;;
68938;SDS011;59064;45.294;11.816;2023-07-13T15:43:21;8.90;;;3.70;;
68938;SDS011;59064;45.294;11.816;2023-07-13T15:45:47;10.90;;;3.90;;